sensor_id;sensor_type;location;lat;lon;timestamp;pressure;altitude;pressure_sealevel;temperature;humidity
77778;BME280;66966;-34.746;138.604;2023-04-03T00:02:14;101756.50;;;20.08;23.82
77778;BME280;66966;-34.746;138.604;2023-04-03T00:04:40;101753.46;;;20.32;23.46
77778;BME280;66966;-34.746;138.604;2023-04-03T00:07:05;101745.56;;;20.49;22.59
77778;BME280;66966;-34.746;138.604;2023-04-03T00:09:30;101746.34;;;20.60;22.62
77778;BME280;66966;-34.746;138.604;2023-04-03T00:11:56;101746.98;;;20.77;22.84
77778;BME280;66966;-34.746;138.604;2023-04-03T00:14:21;101746.23;;;20.66;22.75
77778;BME280;66966;-34.746;138.604;2023-04-03T00:16:47;101746.86;;;20.84;22.65
77778;BME280;66966;-34.746;138.604;2023-04-03T00:19:12;101742.91;;;21.21;22.38
77778;BME280;66966;-34.746;138.604;2023-04-03T00:21:37;101743.84;;;20.79;22.26
77778;BME280;66966;-34.746;138.604;2023-04-03T00:24:03;101744.79;;;20.90;22.23
77778;BME280;66966;-34.746;138.604;2023-04-03T00:26:28;101744.34;;;21.34;21.61
77778;BME280;66966;-34.746;138.604;2023-04-03T00:28:54;101742.35;;;21.20;22.06
77778;BME280;66966;-34.746;138.604;2023-04-03T00:31:19;101745.44;;;21.39;22.27
77778;BME280;66966;-34.746;138.604;2023-04-03T00:33:45;101746.77;;;21.56;20.58
77778;BME280;66966;-34.746;138.604;2023-04-03T00:36:11;101743.29;;;21.71;20.90
77778;BME280;66966;-34.746;138.604;2023-04-03T00:38:36;101743.28;;;21.50;21.22
77778;BME280;66966;-34.746;138.604;2023-04-03T00:41:01;101741.55;;;21.59;20.25
77778;BME280;66966;-34.746;138.604;2023-04-03T00:43:26;101737.10;;;21.73;20.82
77778;BME280;66966;-34.746;138.604;2023-04-03T00:45:52;101732.32;;;21.56;20.30
77778;BME280;66966;-34.746;138.604;2023-04-03T00:48:20;101729.60;;;21.65;20.39
77778;BME280;66966;-34.746;138.604;2023-04-03T00:50:43;101728.43;;;21.79;20.28
77778;BME280;66966;-34.746;138.604;2023-04-03T00:53:11;101726.61;;;21.92;20.16
77778;BME280;66966;-34.746;138.604;2023-04-03T00:55:34;101720.64;;;21.80;20.35
77778;BME280;66966;-34.746;138.604;2023-04-03T00:57:59;101723.08;;;22.10;19.77
77778;BME280;66966;-34.746;138.604;2023-04-03T01:00:25;101718.19;;;22.26;19.17
77778;BME280;66966;-34.746;138.604;2023-04-03T01:02:49;101717.35;;;22.33;20.39
77778;BME280;66966;-34.746;138.604;2023-04-03T01:05:18;101718.70;;;22.37;20.51
77778;BME280;66966;-34.746;138.604;2023-04-03T01:07:41;101718.91;;;22.22;19.90
77778;BME280;66966;-34.746;138.604;2023-04-03T01:10:08;101718.27;;;22.44;18.86
77778;BME280;66966;-34.746;138.604;2023-04-03T01:12:33;101719.78;;;22.47;18.69
77778;BME280;66966;-34.746;138.604;2023-04-03T01:14:58;101714.62;;;22.55;19.25
77778;BME280;66966;-34.746;138.604;2023-04-03T01:17:28;101713.04;;;22.63;18.63
77778;BME280;66966;-34.746;138.604;2023-04-03T01:19:53;101711.69;;;22.41;19.50
77778;BME280;66966;-34.746;138.604;2023-04-03T01:22:18;101709.93;;;22.72;18.89
77778;BME280;66966;-34.746;138.604;2023-04-03T01:24:38;101710.90;;;22.61;19.12
77778;BME280;66966;-34.746;138.604;2023-04-03T01:27:05;101707.12;;;22.82;19.73
77778;BME280;66966;-34.746;138.604;2023-04-03T01:29:29;101700.04;;;23.05;19.80
77778;BME280;66966;-34.746;138.604;2023-04-03T01:31:55;101694.89;;;23.00;19.18
77778;BME280;66966;-34.746;138.604;2023-04-03T01:34:19;101693.06;;;23.34;19.14
77778;BME280;66966;-34.746;138.604;2023-04-03T01:36:44;101691.64;;;23.28;19.47
77778;BME280;66966;-34.746;138.604;2023-04-03T01:39:10;101688.96;;;23.34;18.42
77778;BME280;66966;-34.746;138.604;2023-04-03T01:41:35;101687.69;;;23.15;18.24
77778;BME280;66966;-34.746;138.604;2023-04-03T01:44:00;101681.27;;;23.68;17.34
77778;BME280;66966;-34.746;138.604;2023-04-03T01:46:26;101679.95;;;23.64;17.48
77778;BME280;66966;-34.746;138.604;2023-04-03T01:48:51;101679.55;;;23.50;18.09
77778;BME280;66966;-34.746;138.604;2023-04-03T01:51:16;101675.54;;;23.56;18.71
77778;BME280;66966;-34.746;138.604;2023-04-03T01:53:42;101681.55;;;23.80;18.59
77778;BME280;66966;-34.746;138.604;2023-04-03T01:56:07;101677.62;;;23.99;18.10
77778;BME280;66966;-34.746;138.604;2023-04-03T01:58:32;101676.28;;;24.07;18.58
77778;BME280;66966;-34.746;138.604;2023-04-03T02:00:57;101672.64;;;24.10;17.40
77778;BME280;66966;-34.746;138.604;2023-04-03T02:03:23;101668.50;;;24.11;16.82
77778;BME280;66966;-34.746;138.604;2023-04-03T02:05:49;101662.62;;;24.10;16.67
77778;BME280;66966;-34.746;138.604;2023-04-03T02:08:13;101659.56;;;23.88;17.61
77778;BME280;66966;-34.746;138.604;2023-04-03T02:10:39;101656.63;;;23.92;18.30
77778;BME280;66966;-34.746;138.604;2023-04-03T02:13:04;101659.43;;;24.36;18.25
77778;BME280;66966;-34.746;138.604;2023-04-03T02:15:29;101661.11;;;24.09;17.92
77778;BME280;66966;-34.746;138.604;2023-04-03T02:17:55;101664.43;;;24.23;18.09
77778;BME280;66966;-34.746;138.604;2023-04-03T02:20:20;101660.19;;;24.37;17.70
77778;BME280;66966;-34.746;138.604;2023-04-03T02:22:45;101653.70;;;24.27;17.58
77778;BME280;66966;-34.746;138.604;2023-04-03T02:25:11;101653.19;;;24.15;17.02
77778;BME280;66966;-34.746;138.604;2023-04-03T02:27:36;101652.86;;;24.37;17.73
77778;BME280;66966;-34.746;138.604;2023-04-03T02:30:01;101647.51;;;24.49;17.97
77778;BME280;66966;-34.746;138.604;2023-04-03T02:32:26;101643.11;;;24.58;17.69
77778;BME280;66966;-34.746;138.604;2023-04-03T02:34:51;101638.06;;;24.69;17.11
77778;BME280;66966;-34.746;138.604;2023-04-03T02:37:17;101636.98;;;24.90;17.13
77778;BME280;66966;-34.746;138.604;2023-04-03T02:39:42;101635.95;;;25.05;17.24
77778;BME280;66966;-34.746;138.604;2023-04-03T02:42:08;101633.15;;;24.89;16.62
77778;BME280;66966;-34.746;138.604;2023-04-03T02:44:33;101627.00;;;24.73;16.91
77778;BME280;66966;-34.746;138.604;2023-04-03T02:46:58;101623.54;;;25.35;17.57
77778;BME280;66966;-34.746;138.604;2023-04-03T02:49:23;101619.40;;;25.31;17.62
77778;BME280;66966;-34.746;138.604;2023-04-03T02:51:48;101615.38;;;25.44;17.46
77778;BME280;66966;-34.746;138.604;2023-04-03T02:54:14;101611.82;;;25.54;15.99
77778;BME280;66966;-34.746;138.604;2023-04-03T02:56:39;101608.08;;;25.45;16.62
77778;BME280;66966;-34.746;138.604;2023-04-03T02:59:04;101607.83;;;25.56;16.50
77778;BME280;66966;-34.746;138.604;2023-04-03T03:01:30;101602.22;;;25.46;15.33
77778;BME280;66966;-34.746;138.604;2023-04-03T03:03:55;101600.11;;;25.12;14.91
77778;BME280;66966;-34.746;138.604;2023-04-03T03:06:21;101602.15;;;25.64;15.59
77778;BME280;66966;-34.746;138.604;2023-04-03T03:08:45;101598.85;;;25.82;15.47
77778;BME280;66966;-34.746;138.604;2023-04-03T03:11:11;101593.49;;;25.53;15.80
77778;BME280;66966;-34.746;138.604;2023-04-03T03:13:36;101586.05;;;25.92;16.43
77778;BME280;66966;-34.746;138.604;2023-04-03T03:16:02;101581.72;;;25.86;15.96
77778;BME280;66966;-34.746;138.604;2023-04-03T03:18:27;101580.83;;;25.95;16.45
77778;BME280;66966;-34.746;138.604;2023-04-03T03:20:52;101575.76;;;26.17;15.67
77778;BME280;66966;-34.746;138.604;2023-04-03T03:23:17;101570.97;;;26.31;15.92
77778;BME280;66966;-34.746;138.604;2023-04-03T03:25:42;101568.62;;;26.22;15.26
77778;BME280;66966;-34.746;138.604;2023-04-03T03:28:08;101566.67;;;26.54;15.74
77778;BME280;66966;-34.746;138.604;2023-04-03T03:30:33;101560.08;;;26.17;15.64
77778;BME280;66966;-34.746;138.604;2023-04-03T03:32:58;101556.66;;;26.71;15.53
77778;BME280;66966;-34.746;138.604;2023-04-03T03:35:23;101552.69;;;26.62;16.30
77778;BME280;66966;-34.746;138.604;2023-04-03T03:37:49;101549.18;;;26.77;15.98
77778;BME280;66966;-34.746;138.604;2023-04-03T03:40:14;101545.54;;;26.55;15.84
77778;BME280;66966;-34.746;138.604;2023-04-03T03:42:39;101543.24;;;26.55;15.26
77778;BME280;66966;-34.746;138.604;2023-04-03T03:45:05;101539.71;;;26.21;15.02
77778;BME280;66966;-34.746;138.604;2023-04-03T03:47:30;101536.25;;;26.57;15.03
77778;BME280;66966;-34.746;138.604;2023-04-03T03:49:55;101535.32;;;26.11;15.05
77778;BME280;66966;-34.746;138.604;2023-04-03T03:52:20;101526.67;;;26.39;14.92
77778;BME280;66966;-34.746;138.604;2023-04-03T03:54:45;101525.32;;;26.17;14.81
77778;BME280;66966;-34.746;138.604;2023-04-03T03:57:10;101518.14;;;26.10;15.17
77778;BME280;66966;-34.746;138.604;2023-04-03T03:59:35;101517.15;;;25.87;15.01
77778;BME280;66966;-34.746;138.604;2023-04-03T04:02:01;101513.24;;;26.09;15.34
77778;BME280;66966;-34.746;138.604;2023-04-03T04:04:26;101505.89;;;26.10;15.90
77778;BME280;66966;-34.746;138.604;2023-04-03T04:06:51;101504.34;;;26.19;15.61
77778;BME280;66966;-34.746;138.604;2023-04-03T04:09:16;101503.34;;;26.10;16.53
77778;BME280;66966;-34.746;138.604;2023-04-03T04:11:41;101503.87;;;26.27;16.42
77778;BME280;66966;-34.746;138.604;2023-04-03T04:14:07;101505.70;;;26.16;16.04
77778;BME280;66966;-34.746;138.604;2023-04-03T04:16:32;101506.10;;;26.17;16.26
77778;BME280;66966;-34.746;138.604;2023-04-03T04:18:58;101506.54;;;25.99;16.48
77778;BME280;66966;-34.746;138.604;2023-04-03T04:21:22;101506.03;;;26.09;17.05
77778;BME280;66966;-34.746;138.604;2023-04-03T04:23:48;101508.20;;;26.28;16.60
77778;BME280;66966;-34.746;138.604;2023-04-03T04:26:13;101504.96;;;25.88;16.50
77778;BME280;66966;-34.746;138.604;2023-04-03T04:28:38;101499.96;;;25.72;16.65
77778;BME280;66966;-34.746;138.604;2023-04-03T04:31:04;101496.56;;;25.51;16.65
77778;BME280;66966;-34.746;138.604;2023-04-03T04:33:29;101497.21;;;25.99;16.97
77778;BME280;66966;-34.746;138.604;2023-04-03T04:36:00;101494.01;;;25.68;16.84
77778;BME280;66966;-34.746;138.604;2023-04-03T04:38:19;101493.92;;;26.09;16.18
77778;BME280;66966;-34.746;138.604;2023-04-03T04:40:44;101491.65;;;26.35;16.36
77778;BME280;66966;-34.746;138.604;2023-04-03T04:43:10;101490.48;;;26.22;16.23
77778;BME280;66966;-34.746;138.604;2023-04-03T04:45:35;101491.01;;;25.86;16.26
77778;BME280;66966;-34.746;138.604;2023-04-03T04:48:00;101488.46;;;26.48;16.10
77778;BME280;66966;-34.746;138.604;2023-04-03T04:50:25;101489.28;;;26.40;15.49
77778;BME280;66966;-34.746;138.604;2023-04-03T04:52:50;101488.90;;;26.22;15.87
77778;BME280;66966;-34.746;138.604;2023-04-03T04:55:16;101484.27;;;26.21;15.79
77778;BME280;66966;-34.746;138.604;2023-04-03T04:57:41;101480.51;;;26.76;15.53
77778;BME280;66966;-34.746;138.604;2023-04-03T05:00:07;101475.49;;;26.47;15.41
77778;BME280;66966;-34.746;138.604;2023-04-03T05:02:31;101475.92;;;26.53;15.24
77778;BME280;66966;-34.746;138.604;2023-04-03T05:04:56;101474.62;;;26.28;15.14
77778;BME280;66966;-34.746;138.604;2023-04-03T05:07:23;101471.92;;;26.60;15.10
77778;BME280;66966;-34.746;138.604;2023-04-03T05:09:47;101468.61;;;27.26;14.85
77778;BME280;66966;-34.746;138.604;2023-04-03T05:12:12;101467.04;;;26.94;14.64
77778;BME280;66966;-34.746;138.604;2023-04-03T05:14:37;101473.17;;;26.67;14.57
77778;BME280;66966;-34.746;138.604;2023-04-03T05:17:02;101472.10;;;26.99;14.99
77778;BME280;66966;-34.746;138.604;2023-04-03T05:19:28;101469.86;;;27.01;15.08
77778;BME280;66966;-34.746;138.604;2023-04-03T05:21:53;101470.32;;;26.94;14.54
77778;BME280;66966;-34.746;138.604;2023-04-03T05:24:18;101470.93;;;27.12;14.60
77778;BME280;66966;-34.746;138.604;2023-04-03T05:26:43;101469.62;;;27.45;14.83
77778;BME280;66966;-34.746;138.604;2023-04-03T05:29:15;101466.02;;;26.87;14.64
77778;BME280;66966;-34.746;138.604;2023-04-03T05:31:34;101471.92;;;26.31;14.78
77778;BME280;66966;-34.746;138.604;2023-04-03T05:33:59;101470.64;;;26.80;14.69
77778;BME280;66966;-34.746;138.604;2023-04-03T05:36:24;101475.42;;;27.02;14.85
77778;BME280;66966;-34.746;138.604;2023-04-03T05:38:49;101472.10;;;26.79;14.84
77778;BME280;66966;-34.746;138.604;2023-04-03T05:41:15;101476.01;;;26.80;14.28
77778;BME280;66966;-34.746;138.604;2023-04-03T05:43:40;101473.94;;;26.69;14.37
77778;BME280;66966;-34.746;138.604;2023-04-03T05:46:08;101472.87;;;26.96;14.71
77778;BME280;66966;-34.746;138.604;2023-04-03T05:48:30;101474.93;;;26.95;14.13
77778;BME280;66966;-34.746;138.604;2023-04-03T05:50:56;101478.94;;;27.21;14.25
77778;BME280;66966;-34.746;138.604;2023-04-03T05:53:25;101475.01;;;26.98;14.11
77778;BME280;66966;-34.746;138.604;2023-04-03T05:55:46;101477.34;;;27.17;13.98
77778;BME280;66966;-34.746;138.604;2023-04-03T05:58:11;101481.10;;;27.34;14.03
77778;BME280;66966;-34.746;138.604;2023-04-03T06:00:36;101480.76;;;27.21;13.96
77778;BME280;66966;-34.746;138.604;2023-04-03T06:03:01;101477.55;;;27.05;14.05
77778;BME280;66966;-34.746;138.604;2023-04-03T06:05:26;101476.64;;;27.48;13.68
77778;BME280;66966;-34.746;138.604;2023-04-03T06:07:52;101473.53;;;27.52;13.75
77778;BME280;66966;-34.746;138.604;2023-04-03T06:10:17;101475.55;;;27.67;13.74
77778;BME280;66966;-34.746;138.604;2023-04-03T06:12:42;101474.60;;;27.51;13.54
77778;BME280;66966;-34.746;138.604;2023-04-03T06:15:08;101477.27;;;27.95;13.07
77778;BME280;66966;-34.746;138.604;2023-04-03T06:17:32;101480.66;;;27.90;13.23
77778;BME280;66966;-34.746;138.604;2023-04-03T06:19:58;101476.20;;;28.02;12.46
77778;BME280;66966;-34.746;138.604;2023-04-03T06:22:23;101476.31;;;27.89;13.01
77778;BME280;66966;-34.746;138.604;2023-04-03T06:24:48;101479.14;;;28.07;12.82
77778;BME280;66966;-34.746;138.604;2023-04-03T06:27:13;101476.59;;;28.43;12.16
77778;BME280;66966;-34.746;138.604;2023-04-03T06:29:38;101475.86;;;28.20;12.78
77778;BME280;66966;-34.746;138.604;2023-04-03T06:32:04;101473.81;;;28.40;11.49
77778;BME280;66966;-34.746;138.604;2023-04-03T06:34:28;101472.28;;;28.50;11.89
77778;BME280;66966;-34.746;138.604;2023-04-03T06:36:53;101465.58;;;28.82;11.88
77778;BME280;66966;-34.746;138.604;2023-04-03T06:39:20;101465.46;;;29.00;12.14
77778;BME280;66966;-34.746;138.604;2023-04-03T06:41:44;101467.02;;;28.91;11.74
77778;BME280;66966;-34.746;138.604;2023-04-03T06:44:09;101464.81;;;28.93;10.79
77778;BME280;66966;-34.746;138.604;2023-04-03T06:46:34;101464.84;;;28.35;11.01
77778;BME280;66966;-34.746;138.604;2023-04-03T06:49:00;101462.80;;;28.95;11.66
77778;BME280;66966;-34.746;138.604;2023-04-03T06:51:28;101461.33;;;29.33;11.30
77778;BME280;66966;-34.746;138.604;2023-04-03T06:53:50;101458.71;;;29.18;11.28
77778;BME280;66966;-34.746;138.604;2023-04-03T06:56:15;101460.19;;;29.30;11.09
77778;BME280;66966;-34.746;138.604;2023-04-03T06:58:40;101460.23;;;29.32;11.48
77778;BME280;66966;-34.746;138.604;2023-04-03T07:01:05;101461.46;;;29.38;11.12
77778;BME280;66966;-34.746;138.604;2023-04-03T07:03:30;101463.69;;;29.39;10.99
77778;BME280;66966;-34.746;138.604;2023-04-03T07:05:56;101465.30;;;29.40;10.67
77778;BME280;66966;-34.746;138.604;2023-04-03T07:08:21;101467.14;;;29.15;10.64
77778;BME280;66966;-34.746;138.604;2023-04-03T07:10:46;101464.84;;;29.05;11.12
77778;BME280;66966;-34.746;138.604;2023-04-03T07:13:12;101467.14;;;29.01;10.63
77778;BME280;66966;-34.746;138.604;2023-04-03T07:15:37;101465.94;;;28.83;11.16
77778;BME280;66966;-34.746;138.604;2023-04-03T07:18:02;101470.45;;;28.93;11.26
77778;BME280;66966;-34.746;138.604;2023-04-03T07:20:27;101470.15;;;29.02;11.55
77778;BME280;66966;-34.746;138.604;2023-04-03T07:22:53;101472.04;;;28.79;11.35
77778;BME280;66966;-34.746;138.604;2023-04-03T07:25:19;101476.59;;;28.95;11.56
77778;BME280;66966;-34.746;138.604;2023-04-03T07:27:43;101482.31;;;28.85;11.89
77778;BME280;66966;-34.746;138.604;2023-04-03T07:30:09;101483.35;;;28.68;11.76
77778;BME280;66966;-34.746;138.604;2023-04-03T07:32:33;101485.36;;;28.36;12.02
77778;BME280;66966;-34.746;138.604;2023-04-03T07:34:59;101483.99;;;28.40;12.92
77778;BME280;66966;-34.746;138.604;2023-04-03T07:37:25;101483.96;;;28.40;13.28
77778;BME280;66966;-34.746;138.604;2023-04-03T07:39:50;101484.63;;;28.12;13.20
77778;BME280;66966;-34.746;138.604;2023-04-03T07:42:15;101485.14;;;28.12;13.06
77778;BME280;66966;-34.746;138.604;2023-04-03T07:44:41;101490.33;;;27.91;13.54
77778;BME280;66966;-34.746;138.604;2023-04-03T07:47:07;101487.49;;;27.78;13.02
77778;BME280;66966;-34.746;138.604;2023-04-03T07:49:32;101488.18;;;27.60;13.40
77778;BME280;66966;-34.746;138.604;2023-04-03T07:51:57;101488.85;;;27.60;13.66
77778;BME280;66966;-34.746;138.604;2023-04-03T07:54:22;101490.91;;;27.37;13.32
77778;BME280;66966;-34.746;138.604;2023-04-03T07:56:47;101493.25;;;27.24;13.51
77778;BME280;66966;-34.746;138.604;2023-04-03T07:59:12;101494.15;;;27.36;13.64
77778;BME280;66966;-34.746;138.604;2023-04-03T08:01:38;101494.75;;;26.67;13.27
77778;BME280;66966;-34.746;138.604;2023-04-03T08:04:03;101495.43;;;26.74;13.50
77778;BME280;66966;-34.746;138.604;2023-04-03T08:06:28;101496.17;;;26.85;13.88
77778;BME280;66966;-34.746;138.604;2023-04-03T08:08:53;101500.09;;;26.72;13.90
77778;BME280;66966;-34.746;138.604;2023-04-03T08:11:18;101499.24;;;26.58;14.17
77778;BME280;66966;-34.746;138.604;2023-04-03T08:13:44;101505.33;;;26.41;14.97
77778;BME280;66966;-34.746;138.604;2023-04-03T08:16:11;101506.72;;;26.27;15.02
77778;BME280;66966;-34.746;138.604;2023-04-03T08:18:34;101513.00;;;26.11;15.16
77778;BME280;66966;-34.746;138.604;2023-04-03T08:20:59;101514.63;;;25.98;15.31
77778;BME280;66966;-34.746;138.604;2023-04-03T08:23:25;101515.55;;;26.31;15.56
77778;BME280;66966;-34.746;138.604;2023-04-03T08:25:50;101524.94;;;25.72;15.55
77778;BME280;66966;-34.746;138.604;2023-04-03T08:28:15;101525.56;;;25.81;15.49
77778;BME280;66966;-34.746;138.604;2023-04-03T08:47:44;101527.43;;;25.71;14.98
77778;BME280;66966;-34.746;138.604;2023-04-03T08:47:57;101539.19;;;25.70;15.51
77778;BME280;66966;-34.746;138.604;2023-04-03T08:52:47;101543.92;;;25.57;15.71
77778;BME280;66966;-34.746;138.604;2023-04-03T08:55:12;101544.54;;;25.12;16.10
77778;BME280;66966;-34.746;138.604;2023-04-03T08:57:34;101550.49;;;24.91;16.87
77778;BME280;66966;-34.746;138.604;2023-04-03T08:59:57;101552.89;;;24.57;17.25
77778;BME280;66966;-34.746;138.604;2023-04-03T09:02:29;101551.37;;;24.46;17.70
77778;BME280;66966;-34.746;138.604;2023-04-03T09:04:46;101556.12;;;23.97;17.92
77778;BME280;66966;-34.746;138.604;2023-04-03T09:07:19;101557.26;;;23.98;18.24
77778;BME280;66966;-34.746;138.604;2023-04-03T09:09:40;101559.12;;;24.09;18.25
77778;BME280;66966;-34.746;138.604;2023-04-03T09:12:12;101560.07;;;23.89;18.85
77778;BME280;66966;-34.746;138.604;2023-04-03T09:14:32;101564.71;;;23.70;19.03
77778;BME280;66966;-34.746;138.604;2023-04-03T09:16:56;101565.22;;;23.29;19.02
77778;BME280;66966;-34.746;138.604;2023-04-03T09:19:26;101566.51;;;23.40;19.07
77778;BME280;66966;-34.746;138.604;2023-04-03T09:21:44;101564.15;;;23.51;19.33
77778;BME280;66966;-34.746;138.604;2023-04-03T09:24:11;101563.57;;;23.39;19.51
77778;BME280;66966;-34.746;138.604;2023-04-03T09:26:43;101565.57;;;23.30;19.54
77778;BME280;66966;-34.746;138.604;2023-04-03T09:29:04;101567.78;;;23.13;19.63
77778;BME280;66966;-34.746;138.604;2023-04-03T09:31:29;101572.06;;;23.01;19.69
77778;BME280;66966;-34.746;138.604;2023-04-03T09:33:53;101575.32;;;22.85;19.75
77778;BME280;66966;-34.746;138.604;2023-04-03T09:38:41;101581.37;;;23.07;20.04
77778;BME280;66966;-34.746;138.604;2023-04-03T09:41:10;101586.09;;;22.73;20.27
77778;BME280;66966;-34.746;138.604;2023-04-03T09:43:33;101588.90;;;22.32;20.59
77778;BME280;66966;-34.746;138.604;2023-04-03T09:48:24;101595.45;;;22.26;20.67
77778;BME280;66966;-34.746;138.604;2023-04-03T09:50:57;101594.86;;;21.96;20.95
77778;BME280;66966;-34.746;138.604;2023-04-03T09:55:43;101600.51;;;22.11;21.37
77778;BME280;66966;-34.746;138.604;2023-04-03T09:58:22;101601.01;;;22.08;21.40
77778;BME280;66966;-34.746;138.604;2023-04-03T10:00:33;101602.05;;;22.03;21.73
77778;BME280;66966;-34.746;138.604;2023-04-03T10:02:57;101606.40;;;22.01;21.75
77778;BME280;66966;-34.746;138.604;2023-04-03T10:05:32;101610.49;;;21.95;21.79
77778;BME280;66966;-34.746;138.604;2023-04-03T10:07:46;101608.66;;;21.87;21.67
77778;BME280;66966;-34.746;138.604;2023-04-03T10:10:17;101607.79;;;21.77;21.55
77778;BME280;66966;-34.746;138.604;2023-04-03T10:12:36;101607.04;;;21.76;21.19
77778;BME280;66966;-34.746;138.604;2023-04-03T10:15:02;101606.89;;;21.80;21.22
77778;BME280;66966;-34.746;138.604;2023-04-03T10:17:37;101613.22;;;21.80;21.44
77778;BME280;66966;-34.746;138.604;2023-04-03T10:19:57;101617.37;;;21.80;21.18
77778;BME280;66966;-34.746;138.604;2023-04-03T10:22:23;101618.19;;;22.03;21.08
77778;BME280;66966;-34.746;138.604;2023-04-03T10:24:51;101619.82;;;21.97;20.81
77778;BME280;66966;-34.746;138.604;2023-04-03T10:27:12;101619.10;;;21.83;21.14
77778;BME280;66966;-34.746;138.604;2023-04-03T10:29:42;101622.76;;;21.72;21.14
77778;BME280;66966;-34.746;138.604;2023-04-03T10:32:09;101625.85;;;21.70;21.15
77778;BME280;66966;-34.746;138.604;2023-04-03T10:34:29;101624.69;;;22.09;21.18
77778;BME280;66966;-34.746;138.604;2023-04-03T10:36:56;101626.12;;;21.30;21.19
77778;BME280;66966;-34.746;138.604;2023-04-03T10:39:22;101627.33;;;21.51;21.38
77778;BME280;66966;-34.746;138.604;2023-04-03T10:41:51;101627.50;;;21.74;21.22
77778;BME280;66966;-34.746;138.604;2023-04-03T10:44:16;101627.92;;;21.76;20.80
77778;BME280;66966;-34.746;138.604;2023-04-03T10:46:37;101624.68;;;22.00;20.71
77778;BME280;66966;-34.746;138.604;2023-04-03T10:49:10;101629.68;;;21.77;20.72
77778;BME280;66966;-34.746;138.604;2023-04-03T10:51:28;101632.63;;;21.57;20.84
77778;BME280;66966;-34.746;138.604;2023-04-03T10:53:55;101633.24;;;21.38;20.86
77778;BME280;66966;-34.746;138.604;2023-04-03T10:56:19;101633.17;;;21.70;20.69
77778;BME280;66966;-34.746;138.604;2023-04-03T10:58:43;101635.18;;;21.89;20.71
77778;BME280;66966;-34.746;138.604;2023-04-03T11:01:08;101638.15;;;21.61;20.67
77778;BME280;66966;-34.746;138.604;2023-04-03T11:03:34;101638.34;;;21.58;20.70
77778;BME280;66966;-34.746;138.604;2023-04-03T11:05:56;101635.62;;;21.83;20.66
77778;BME280;66966;-34.746;138.604;2023-04-03T11:08:28;101636.76;;;21.79;20.69
77778;BME280;66966;-34.746;138.604;2023-04-03T11:10:49;101636.75;;;21.38;20.66
77778;BME280;66966;-34.746;138.604;2023-04-03T11:13:15;101637.51;;;21.62;20.44
77778;BME280;66966;-34.746;138.604;2023-04-03T11:15:37;101637.02;;;21.82;20.50
77778;BME280;66966;-34.746;138.604;2023-04-03T11:18:06;101638.36;;;21.55;20.48
77778;BME280;66966;-34.746;138.604;2023-04-03T11:20:30;101637.64;;;21.62;20.43
77778;BME280;66966;-34.746;138.604;2023-04-03T11:23:00;101639.01;;;21.48;20.41
77778;BME280;66966;-34.746;138.604;2023-04-03T11:25:21;101637.98;;;21.68;20.47
77778;BME280;66966;-34.746;138.604;2023-04-03T11:27:47;101642.29;;;21.70;20.52
77778;BME280;66966;-34.746;138.604;2023-04-03T11:30:16;101644.67;;;21.67;20.52
77778;BME280;66966;-34.746;138.604;2023-04-03T11:35:03;101648.90;;;21.20;20.62
77778;BME280;66966;-34.746;138.604;2023-04-03T11:37:31;101647.79;;;21.67;20.59
77778;BME280;66966;-34.746;138.604;2023-04-03T11:39:57;101647.35;;;21.71;20.59
77778;BME280;66966;-34.746;138.604;2023-04-03T11:42:24;101647.71;;;21.68;20.77
77778;BME280;66966;-34.746;138.604;2023-04-03T11:44:43;101651.25;;;21.10;20.86
77778;BME280;66966;-34.746;138.604;2023-04-03T11:47:09;101652.25;;;21.31;21.03
77778;BME280;66966;-34.746;138.604;2023-04-03T11:51:58;101653.12;;;21.30;21.44
77778;BME280;66966;-34.746;138.604;2023-04-03T11:56:49;101653.81;;;20.99;21.85
77778;BME280;66966;-34.746;138.604;2023-04-03T11:59:23;101649.68;;;21.10;22.19
77778;BME280;66966;-34.746;138.604;2023-04-03T12:01:46;101652.52;;;21.33;22.27
77778;BME280;66966;-34.746;138.604;2023-04-03T12:04:09;101656.17;;;21.33;22.32
77778;BME280;66966;-34.746;138.604;2023-04-03T12:08:57;101657.97;;;21.29;22.53
77778;BME280;66966;-34.746;138.604;2023-04-03T12:11:28;101665.56;;;21.28;22.64
77778;BME280;66966;-34.746;138.604;2023-04-03T12:16:19;101662.25;;;20.94;22.82
77778;BME280;66966;-34.746;138.604;2023-04-03T12:18:43;101660.87;;;21.42;22.86
77778;BME280;66966;-34.746;138.604;2023-04-03T12:21:04;101658.52;;;20.87;22.98
77778;BME280;66966;-34.746;138.604;2023-04-03T12:23:32;101658.18;;;21.04;23.10
77778;BME280;66966;-34.746;138.604;2023-04-03T12:26:01;101654.07;;;21.02;23.31
77778;BME280;66966;-34.746;138.604;2023-04-03T12:28:20;101651.99;;;21.22;23.43
77778;BME280;66966;-34.746;138.604;2023-04-03T12:30:45;101654.83;;;20.97;23.47
77778;BME280;66966;-34.746;138.604;2023-04-03T12:33:24;101650.87;;;20.98;23.62
77778;BME280;66966;-34.746;138.604;2023-04-03T12:35:44;101652.08;;;20.90;24.10
77778;BME280;66966;-34.746;138.604;2023-04-03T12:38:19;101652.35;;;21.07;24.15
77778;BME280;66966;-34.746;138.604;2023-04-03T12:40:33;101654.21;;;21.05;24.26
77778;BME280;66966;-34.746;138.604;2023-04-03T12:43:05;101656.27;;;20.75;24.42
77778;BME280;66966;-34.746;138.604;2023-04-03T12:45:21;101657.56;;;21.00;24.50
77778;BME280;66966;-34.746;138.604;2023-04-03T12:47:44;101656.20;;;21.20;24.62